sensor_id;sensor_type;location;lat;lon;timestamp;P1;durP1;ratioP1;P2;durP2;ratioP2
80679;SDS011;70043;51.982;-8.514;2023-09-07T00:01:17;9.07;;;1.63;;
80679;SDS011;70043;51.982;-8.514;2023-09-07T00:03:44;5.75;;;1.83;;
80679;SDS011;70043;51.982;-8.514;2023-09-07T00:06:11;6.13;;;1.42;;
80679;SDS011;70043;51.982;-8.514;2023-09-07T00:08:44;5.95;;;1.83;;
80679;SDS011;70043;51.982;-8.514;2023-09-07T00:11:11;8.02;;;1.42;;
80679;SDS011;70043;51.982;-8.514;2023-09-07T00:13:37;4.90;;;1.50;;
80679;SDS011;70043;51.982;-8.514;2023-09-07T00:16:05;5.05;;;1.88;;
80679;SDS011;70043;51.982;-8.514;2023-09-07T00:18:32;9.00;;;2.55;;
80679;SDS011;70043;51.982;-8.514;2023-09-07T00:20:59;7.28;;;2.03;;
80679;SDS011;70043;51.982;-8.514;2023-09-07T00:23:26;6.18;;;1.65;;
80679;SDS011;70043;51.982;-8.514;2023-09-07T00:25:55;5.68;;;1.70;;
80679;SDS011;70043;51.982;-8.514;2023-09-07T00:28:24;5.28;;;1.60;;
80679;SDS011;70043;51.982;-8.514;2023-09-07T00:30:56;5.80;;;1.50;;
80679;SDS011;70043;51.982;-8.514;2023-09-07T00:33:23;4.80;;;1.50;;
80679;SDS011;70043;51.982;-8.514;2023-09-07T00:35:50;7.68;;;2.10;;
80679;SDS011;70043;51.982;-8.514;2023-09-07T00:38:17;10.30;;;2.38;;
80679;SDS011;70043;51.982;-8.514;2023-09-07T00:40:44;9.13;;;2.20;;
80679;SDS011;70043;51.982;-8.514;2023-09-07T00:43:13;4.90;;;1.65;;
80679;SDS011;70043;51.982;-8.514;2023-09-07T00:45:39;7.60;;;1.58;;
80679;SDS011;70043;51.982;-8.514;2023-09-07T00:48:06;6.40;;;2.13;;
80679;SDS011;70043;51.982;-8.514;2023-09-07T00:50:34;9.70;;;1.77;;
80679;SDS011;70043;51.982;-8.514;2023-09-07T00:53:00;5.28;;;2.08;;
80679;SDS011;70043;51.982;-8.514;2023-09-07T00:55:28;8.15;;;2.30;;
80679;SDS011;70043;51.982;-8.514;2023-09-07T00:57:58;3.60;;;1.42;;
80679;SDS011;70043;51.982;-8.514;2023-09-07T01:00:27;7.97;;;2.65;;
80679;SDS011;70043;51.982;-8.514;2023-09-07T01:02:54;6.32;;;1.80;;
80679;SDS011;70043;51.982;-8.514;2023-09-07T01:05:21;7.07;;;1.60;;
80679;SDS011;70043;51.982;-8.514;2023-09-07T01:07:52;5.82;;;1.88;;
80679;SDS011;70043;51.982;-8.514;2023-09-07T01:10:20;4.53;;;2.00;;
80679;SDS011;70043;51.982;-8.514;2023-09-07T01:12:49;4.85;;;1.63;;
80679;SDS011;70043;51.982;-8.514;2023-09-07T01:15:15;6.13;;;1.80;;
80679;SDS011;70043;51.982;-8.514;2023-09-07T01:17:44;8.00;;;1.45;;
80679;SDS011;70043;51.982;-8.514;2023-09-07T01:20:11;9.60;;;1.98;;
80679;SDS011;70043;51.982;-8.514;2023-09-07T01:22:43;5.65;;;1.67;;
80679;SDS011;70043;51.982;-8.514;2023-09-07T01:25:11;3.63;;;1.77;;
80679;SDS011;70043;51.982;-8.514;2023-09-07T01:27:38;8.45;;;2.05;;
80679;SDS011;70043;51.982;-8.514;2023-09-07T01:30:05;6.00;;;1.77;;
80679;SDS011;70043;51.982;-8.514;2023-09-07T01:32:32;9.32;;;2.38;;
80679;SDS011;70043;51.982;-8.514;2023-09-07T01:35:00;8.27;;;1.90;;
80679;SDS011;70043;51.982;-8.514;2023-09-07T01:37:28;5.03;;;2.13;;
80679;SDS011;70043;51.982;-8.514;2023-09-07T01:39:58;6.25;;;1.95;;
80679;SDS011;70043;51.982;-8.514;2023-09-07T01:42:26;5.68;;;1.98;;
80679;SDS011;70043;51.982;-8.514;2023-09-07T01:44:53;5.97;;;1.73;;
80679;SDS011;70043;51.982;-8.514;2023-09-07T01:47:20;7.05;;;1.52;;
80679;SDS011;70043;51.982;-8.514;2023-09-07T01:49:47;4.65;;;1.60;;
80679;SDS011;70043;51.982;-8.514;2023-09-07T01:52:14;4.75;;;1.55;;
80679;SDS011;70043;51.982;-8.514;2023-09-07T01:54:47;4.43;;;1.88;;
80679;SDS011;70043;51.982;-8.514;2023-09-07T01:57:17;4.78;;;1.80;;
80679;SDS011;70043;51.982;-8.514;2023-09-07T01:59:44;6.63;;;1.63;;
80679;SDS011;70043;51.982;-8.514;2023-09-07T02:02:11;5.82;;;1.75;;
80679;SDS011;70043;51.982;-8.514;2023-09-07T02:04:37;3.95;;;1.35;;
80679;SDS011;70043;51.982;-8.514;2023-09-07T02:07:04;6.28;;;1.40;;
80679;SDS011;70043;51.982;-8.514;2023-09-07T02:09:31;4.53;;;1.35;;
80679;SDS011;70043;51.982;-8.514;2023-09-07T02:11:59;3.30;;;1.75;;
80679;SDS011;70043;51.982;-8.514;2023-09-07T02:14:28;7.72;;;2.20;;
80679;SDS011;70043;51.982;-8.514;2023-09-07T02:16:55;6.38;;;1.70;;
80679;SDS011;70043;51.982;-8.514;2023-09-07T02:19:23;6.97;;;1.60;;
80679;SDS011;70043;51.982;-8.514;2023-09-07T02:21:52;8.65;;;1.33;;
80679;SDS011;70043;51.982;-8.514;2023-09-07T02:24:19;6.60;;;1.67;;
80679;SDS011;70043;51.982;-8.514;2023-09-07T02:26:46;6.00;;;1.50;;
80679;SDS011;70043;51.982;-8.514;2023-09-07T02:29:14;7.38;;;2.03;;
80679;SDS011;70043;51.982;-8.514;2023-09-07T02:31:42;4.78;;;1.70;;
80679;SDS011;70043;51.982;-8.514;2023-09-07T02:34:09;4.72;;;1.67;;
80679;SDS011;70043;51.982;-8.514;2023-09-07T02:36:37;4.43;;;1.52;;
80679;SDS011;70043;51.982;-8.514;2023-09-07T02:39:05;7.63;;;1.77;;
80679;SDS011;70043;51.982;-8.514;2023-09-07T02:41:33;7.68;;;1.88;;
80679;SDS011;70043;51.982;-8.514;2023-09-07T02:44:01;4.72;;;1.30;;
80679;SDS011;70043;51.982;-8.514;2023-09-07T02:46:30;4.90;;;2.35;;
80679;SDS011;70043;51.982;-8.514;2023-09-07T02:48:59;4.88;;;1.70;;
80679;SDS011;70043;51.982;-8.514;2023-09-07T02:51:28;8.88;;;2.15;;
80679;SDS011;70043;51.982;-8.514;2023-09-07T02:53:55;7.53;;;1.73;;
80679;SDS011;70043;51.982;-8.514;2023-09-07T02:56:22;9.85;;;1.88;;
80679;SDS011;70043;51.982;-8.514;2023-09-07T02:58:50;7.82;;;1.55;;
80679;SDS011;70043;51.982;-8.514;2023-09-07T03:01:17;9.48;;;1.73;;
80679;SDS011;70043;51.982;-8.514;2023-09-07T03:03:47;6.22;;;1.75;;
80679;SDS011;70043;51.982;-8.514;2023-09-07T03:06:15;5.00;;;1.60;;
80679;SDS011;70043;51.982;-8.514;2023-09-07T03:08:43;7.88;;;1.52;;
80679;SDS011;70043;51.982;-8.514;2023-09-07T03:11:10;5.47;;;1.77;;
80679;SDS011;70043;51.982;-8.514;2023-09-07T03:13:36;6.72;;;1.88;;
80679;SDS011;70043;51.982;-8.514;2023-09-07T03:16:04;8.25;;;2.03;;
80679;SDS011;70043;51.982;-8.514;2023-09-07T03:18:31;5.50;;;1.83;;
80679;SDS011;70043;51.982;-8.514;2023-09-07T03:20:58;5.63;;;1.85;;
80679;SDS011;70043;51.982;-8.514;2023-09-07T03:23:28;6.57;;;1.38;;
80679;SDS011;70043;51.982;-8.514;2023-09-07T03:25:56;6.47;;;1.85;;
80679;SDS011;70043;51.982;-8.514;2023-09-07T03:28:22;5.47;;;1.85;;
80679;SDS011;70043;51.982;-8.514;2023-09-07T03:30:51;5.53;;;2.00;;
80679;SDS011;70043;51.982;-8.514;2023-09-07T03:33:18;7.53;;;2.10;;
80679;SDS011;70043;51.982;-8.514;2023-09-07T03:35:45;2.40;;;1.33;;
80679;SDS011;70043;51.982;-8.514;2023-09-07T03:38:12;7.00;;;1.80;;
80679;SDS011;70043;51.982;-8.514;2023-09-07T03:40:41;5.65;;;1.85;;
80679;SDS011;70043;51.982;-8.514;2023-09-07T03:43:08;6.95;;;1.60;;
80679;SDS011;70043;51.982;-8.514;2023-09-07T03:45:34;8.43;;;1.90;;
80679;SDS011;70043;51.982;-8.514;2023-09-07T03:48:03;5.45;;;1.48;;
80679;SDS011;70043;51.982;-8.514;2023-09-07T03:50:30;6.65;;;1.58;;
80679;SDS011;70043;51.982;-8.514;2023-09-07T03:52:57;5.95;;;1.98;;
80679;SDS011;70043;51.982;-8.514;2023-09-07T03:55:23;3.50;;;1.67;;
80679;SDS011;70043;51.982;-8.514;2023-09-07T03:57:52;4.63;;;2.10;;
80679;SDS011;70043;51.982;-8.514;2023-09-07T04:00:19;13.50;;;2.17;;
80679;SDS011;70043;51.982;-8.514;2023-09-07T04:02:46;7.35;;;1.83;;
80679;SDS011;70043;51.982;-8.514;2023-09-07T04:05:13;4.75;;;1.50;;
80679;SDS011;70043;51.982;-8.514;2023-09-07T04:10:11;10.50;;;2.05;;
80679;SDS011;70043;51.982;-8.514;2023-09-07T04:12:38;8.55;;;1.55;;
80679;SDS011;70043;51.982;-8.514;2023-09-07T04:15:07;6.18;;;1.80;;
80679;SDS011;70043;51.982;-8.514;2023-09-07T04:17:38;6.28;;;1.50;;
80679;SDS011;70043;51.982;-8.514;2023-09-07T04:20:06;4.95;;;1.55;;
80679;SDS011;70043;51.982;-8.514;2023-09-07T04:22:34;6.35;;;1.92;;
80679;SDS011;70043;51.982;-8.514;2023-09-07T04:25:02;5.47;;;2.03;;
80679;SDS011;70043;51.982;-8.514;2023-09-07T04:27:30;8.73;;;1.95;;
80679;SDS011;70043;51.982;-8.514;2023-09-07T04:29:57;9.15;;;2.05;;
80679;SDS011;70043;51.982;-8.514;2023-09-07T04:32:25;6.20;;;1.42;;
80679;SDS011;70043;51.982;-8.514;2023-09-07T04:34:53;7.80;;;1.80;;
80679;SDS011;70043;51.982;-8.514;2023-09-07T04:37:21;5.95;;;1.65;;
80679;SDS011;70043;51.982;-8.514;2023-09-07T04:39:50;5.35;;;1.40;;
80679;SDS011;70043;51.982;-8.514;2023-09-07T04:42:17;5.82;;;1.45;;
80679;SDS011;70043;51.982;-8.514;2023-09-07T04:44:44;3.17;;;1.55;;
80679;SDS011;70043;51.982;-8.514;2023-09-07T04:47:10;10.73;;;2.20;;
80679;SDS011;70043;51.982;-8.514;2023-09-07T04:49:39;5.05;;;1.52;;
80679;SDS011;70043;51.982;-8.514;2023-09-07T04:52:06;6.57;;;1.90;;
80679;SDS011;70043;51.982;-8.514;2023-09-07T04:54:34;6.20;;;1.70;;
80679;SDS011;70043;51.982;-8.514;2023-09-07T04:57:01;9.73;;;2.08;;
80679;SDS011;70043;51.982;-8.514;2023-09-07T04:59:28;2.13;;;1.23;;
80679;SDS011;70043;51.982;-8.514;2023-09-07T05:01:58;6.75;;;1.60;;
80679;SDS011;70043;51.982;-8.514;2023-09-07T05:04:26;6.47;;;1.42;;
80679;SDS011;70043;51.982;-8.514;2023-09-07T05:06:54;5.47;;;1.08;;
80679;SDS011;70043;51.982;-8.514;2023-09-07T05:09:21;4.18;;;1.60;;
80679;SDS011;70043;51.982;-8.514;2023-09-07T05:11:48;6.35;;;1.50;;
80679;SDS011;70043;51.982;-8.514;2023-09-07T05:14:16;3.83;;;1.17;;
80679;SDS011;70043;51.982;-8.514;2023-09-07T05:16:44;9.73;;;2.05;;
80679;SDS011;70043;51.982;-8.514;2023-09-07T05:19:10;2.45;;;1.48;;
80679;SDS011;70043;51.982;-8.514;2023-09-07T05:21:37;6.55;;;1.52;;
80679;SDS011;70043;51.982;-8.514;2023-09-07T05:24:12;6.55;;;1.73;;
80679;SDS011;70043;51.982;-8.514;2023-09-07T05:26:39;7.93;;;1.90;;
80679;SDS011;70043;51.982;-8.514;2023-09-07T05:29:06;5.03;;;1.30;;
80679;SDS011;70043;51.982;-8.514;2023-09-07T05:31:35;3.33;;;1.23;;
80679;SDS011;70043;51.982;-8.514;2023-09-07T05:34:02;4.88;;;1.55;;
80679;SDS011;70043;51.982;-8.514;2023-09-07T05:36:30;6.30;;;1.42;;
80679;SDS011;70043;51.982;-8.514;2023-09-07T05:38:58;3.83;;;1.30;;
80679;SDS011;70043;51.982;-8.514;2023-09-07T05:41:30;3.60;;;1.00;;
80679;SDS011;70043;51.982;-8.514;2023-09-07T05:43:57;2.20;;;1.40;;
80679;SDS011;70043;51.982;-8.514;2023-09-07T05:46:26;3.83;;;1.00;;
80679;SDS011;70043;51.982;-8.514;2023-09-07T05:48:53;5.68;;;1.58;;
80679;SDS011;70043;51.982;-8.514;2023-09-07T05:51:21;3.10;;;1.33;;
80679;SDS011;70043;51.982;-8.514;2023-09-07T05:53:49;1.85;;;1.05;;
80679;SDS011;70043;51.982;-8.514;2023-09-07T05:56:17;5.00;;;1.27;;
80679;SDS011;70043;51.982;-8.514;2023-09-07T05:58:50;6.35;;;1.38;;
80679;SDS011;70043;51.982;-8.514;2023-09-07T06:01:17;4.05;;;1.48;;
80679;SDS011;70043;51.982;-8.514;2023-09-07T06:03:44;4.30;;;1.40;;
80679;SDS011;70043;51.982;-8.514;2023-09-07T06:06:17;5.18;;;1.30;;
80679;SDS011;70043;51.982;-8.514;2023-09-07T06:08:43;2.65;;;1.15;;
80679;SDS011;70043;51.982;-8.514;2023-09-07T06:11:11;7.28;;;1.40;;
80679;SDS011;70043;51.982;-8.514;2023-09-07T06:13:38;5.63;;;1.40;;
80679;SDS011;70043;51.982;-8.514;2023-09-07T06:16:08;8.30;;;1.80;;
80679;SDS011;70043;51.982;-8.514;2023-09-07T06:18:34;3.47;;;1.20;;
80679;SDS011;70043;51.982;-8.514;2023-09-07T06:21:04;5.70;;;1.13;;
80679;SDS011;70043;51.982;-8.514;2023-09-07T06:23:31;6.43;;;1.92;;
80679;SDS011;70043;51.982;-8.514;2023-09-07T06:25:59;3.03;;;1.10;;
80679;SDS011;70043;51.982;-8.514;2023-09-07T06:28:26;3.28;;;1.17;;
80679;SDS011;70043;51.982;-8.514;2023-09-07T06:30:53;3.25;;;1.23;;
80679;SDS011;70043;51.982;-8.514;2023-09-07T06:33:21;3.65;;;1.20;;
80679;SDS011;70043;51.982;-8.514;2023-09-07T06:35:50;5.97;;;1.58;;
80679;SDS011;70043;51.982;-8.514;2023-09-07T06:38:18;2.78;;;1.15;;
80679;SDS011;70043;51.982;-8.514;2023-09-07T06:40:47;5.68;;;1.58;;
80679;SDS011;70043;51.982;-8.514;2023-09-07T06:43:14;4.15;;;1.20;;
80679;SDS011;70043;51.982;-8.514;2023-09-07T06:45:42;3.53;;;1.25;;
80679;SDS011;70043;51.982;-8.514;2023-09-07T06:48:09;3.97;;;1.30;;
80679;SDS011;70043;51.982;-8.514;2023-09-07T06:50:37;3.90;;;1.40;;
80679;SDS011;70043;51.982;-8.514;2023-09-07T06:53:07;4.70;;;1.08;;
80679;SDS011;70043;51.982;-8.514;2023-09-07T06:55:34;3.83;;;1.45;;
80679;SDS011;70043;51.982;-8.514;2023-09-07T06:58:00;5.05;;;1.63;;
80679;SDS011;70043;51.982;-8.514;2023-09-07T07:00:28;3.63;;;1.10;;
80679;SDS011;70043;51.982;-8.514;2023-09-07T07:02:55;4.45;;;1.33;;
80679;SDS011;70043;51.982;-8.514;2023-09-07T07:05:23;7.32;;;1.08;;
80679;SDS011;70043;51.982;-8.514;2023-09-07T07:07:55;3.05;;;0.93;;
80679;SDS011;70043;51.982;-8.514;2023-09-07T07:10:22;4.13;;;0.90;;
80679;SDS011;70043;51.982;-8.514;2023-09-07T07:12:49;3.65;;;1.48;;
80679;SDS011;70043;51.982;-8.514;2023-09-07T07:15:16;4.57;;;1.48;;
80679;SDS011;70043;51.982;-8.514;2023-09-07T07:17:44;2.33;;;1.30;;
80679;SDS011;70043;51.982;-8.514;2023-09-07T07:20:11;6.25;;;1.25;;
80679;SDS011;70043;51.982;-8.514;2023-09-07T07:22:38;4.30;;;1.20;;
80679;SDS011;70043;51.982;-8.514;2023-09-07T07:25:10;2.97;;;1.27;;
80679;SDS011;70043;51.982;-8.514;2023-09-07T07:27:37;3.67;;;1.25;;
80679;SDS011;70043;51.982;-8.514;2023-09-07T07:30:05;3.53;;;1.20;;
80679;SDS011;70043;51.982;-8.514;2023-09-07T07:32:32;2.80;;;1.00;;
80679;SDS011;70043;51.982;-8.514;2023-09-07T07:34:59;4.13;;;1.35;;
80679;SDS011;70043;51.982;-8.514;2023-09-07T07:37:26;2.55;;;0.93;;
80679;SDS011;70043;51.982;-8.514;2023-09-07T07:40:05;4.28;;;1.08;;
80679;SDS011;70043;51.982;-8.514;2023-09-07T07:42:34;2.88;;;1.08;;
80679;SDS011;70043;51.982;-8.514;2023-09-07T07:45:00;4.47;;;1.30;;
80679;SDS011;70043;51.982;-8.514;2023-09-07T07:47:27;4.40;;;1.25;;
80679;SDS011;70043;51.982;-8.514;2023-09-07T07:49:54;3.70;;;1.40;;
80679;SDS011;70043;51.982;-8.514;2023-09-07T07:52:24;4.90;;;1.45;;
80679;SDS011;70043;51.982;-8.514;2023-09-07T07:54:50;6.28;;;1.50;;
80679;SDS011;70043;51.982;-8.514;2023-09-07T07:57:31;4.32;;;1.65;;
80679;SDS011;70043;51.982;-8.514;2023-09-07T07:59:59;3.08;;;1.50;;
80679;SDS011;70043;51.982;-8.514;2023-09-07T08:02:29;5.13;;;1.30;;
80679;SDS011;70043;51.982;-8.514;2023-09-07T08:04:56;4.55;;;2.00;;
80679;SDS011;70043;51.982;-8.514;2023-09-07T08:07:23;9.68;;;1.58;;
80679;SDS011;70043;51.982;-8.514;2023-09-07T08:09:50;9.73;;;2.65;;
80679;SDS011;70043;51.982;-8.514;2023-09-07T08:12:17;3.60;;;1.52;;
80679;SDS011;70043;51.982;-8.514;2023-09-07T08:14:44;11.77;;;1.90;;
80679;SDS011;70043;51.982;-8.514;2023-09-07T08:17:13;4.57;;;1.73;;
80679;SDS011;70043;51.982;-8.514;2023-09-07T08:19:41;4.15;;;1.92;;
80679;SDS011;70043;51.982;-8.514;2023-09-07T08:22:09;7.75;;;2.13;;
80679;SDS011;70043;51.982;-8.514;2023-09-07T08:24:36;5.72;;;1.60;;
80679;SDS011;70043;51.982;-8.514;2023-09-07T08:27:05;4.05;;;1.65;;
80679;SDS011;70043;51.982;-8.514;2023-09-07T08:29:32;2.40;;;1.73;;
80679;SDS011;70043;51.982;-8.514;2023-09-07T08:31:59;7.80;;;2.10;;
80679;SDS011;70043;51.982;-8.514;2023-09-07T08:34:30;6.78;;;2.33;;
80679;SDS011;70043;51.982;-8.514;2023-09-07T08:36:57;3.80;;;1.85;;
80679;SDS011;70043;51.982;-8.514;2023-09-07T08:39:25;6.45;;;1.90;;
80679;SDS011;70043;51.982;-8.514;2023-09-07T08:41:52;23.55;;;2.55;;
80679;SDS011;70043;51.982;-8.514;2023-09-07T08:44:19;8.45;;;1.80;;
80679;SDS011;70043;51.982;-8.514;2023-09-07T08:46:49;9.40;;;2.30;;
80679;SDS011;70043;51.982;-8.514;2023-09-07T08:49:15;5.15;;;1.75;;
80679;SDS011;70043;51.982;-8.514;2023-09-07T08:51:46;6.20;;;1.90;;
80679;SDS011;70043;51.982;-8.514;2023-09-07T08:54:12;9.60;;;1.95;;
80679;SDS011;70043;51.982;-8.514;2023-09-07T08:56:39;6.63;;;1.88;;
80679;SDS011;70043;51.982;-8.514;2023-09-07T08:59:07;9.70;;;2.67;;
80679;SDS011;70043;51.982;-8.514;2023-09-07T09:01:34;8.02;;;2.08;;
80679;SDS011;70043;51.982;-8.514;2023-09-07T09:04:02;9.23;;;2.30;;
80679;SDS011;70043;51.982;-8.514;2023-09-07T09:06:29;9.55;;;1.85;;
80679;SDS011;70043;51.982;-8.514;2023-09-07T09:08:58;9.50;;;2.00;;
80679;SDS011;70043;51.982;-8.514;2023-09-07T09:11:25;6.88;;;2.05;;
80679;SDS011;70043;51.982;-8.514;2023-09-07T09:13:53;5.63;;;1.73;;
80679;SDS011;70043;51.982;-8.514;2023-09-07T09:16:21;6.53;;;2.00;;
80679;SDS011;70043;51.982;-8.514;2023-09-07T09:18:49;4.82;;;1.83;;
80679;SDS011;70043;51.982;-8.514;2023-09-07T09:21:17;9.02;;;1.95;;
80679;SDS011;70043;51.982;-8.514;2023-09-07T09:23:48;5.30;;;2.05;;
80679;SDS011;70043;51.982;-8.514;2023-09-07T09:26:17;6.00;;;2.47;;
80679;SDS011;70043;51.982;-8.514;2023-09-07T09:28:45;9.55;;;2.75;;
80679;SDS011;70043;51.982;-8.514;2023-09-07T09:31:12;6.82;;;2.60;;
80679;SDS011;70043;51.982;-8.514;2023-09-07T09:33:40;6.35;;;2.67;;
80679;SDS011;70043;51.982;-8.514;2023-09-07T09:36:12;9.38;;;2.28;;
80679;SDS011;70043;51.982;-8.514;2023-09-07T09:38:46;6.78;;;1.80;;
80679;SDS011;70043;51.982;-8.514;2023-09-07T09:41:14;16.98;;;2.97;;
80679;SDS011;70043;51.982;-8.514;2023-09-07T09:43:44;5.13;;;2.08;;
80679;SDS011;70043;51.982;-8.514;2023-09-07T09:46:14;6.40;;;1.92;;
80679;SDS011;70043;51.982;-8.514;2023-09-07T09:48:41;7.45;;;3.17;;
80679;SDS011;70043;51.982;-8.514;2023-09-07T09:51:09;7.18;;;2.25;;
80679;SDS011;70043;51.982;-8.514;2023-09-07T09:53:37;11.65;;;2.70;;
80679;SDS011;70043;51.982;-8.514;2023-09-07T09:56:04;7.45;;;2.42;;
80679;SDS011;70043;51.982;-8.514;2023-09-07T09:58:32;10.50;;;2.35;;
80679;SDS011;70043;51.982;-8.514;2023-09-07T10:01:00;9.27;;;2.70;;
80679;SDS011;70043;51.982;-8.514;2023-09-07T10:03:33;9.07;;;2.20;;
80679;SDS011;70043;51.982;-8.514;2023-09-07T10:06:07;7.88;;;2.47;;
80679;SDS011;70043;51.982;-8.514;2023-09-07T10:08:34;6.65;;;2.92;;
80679;SDS011;70043;51.982;-8.514;2023-09-07T10:11:07;10.98;;;2.38;;
80679;SDS011;70043;51.982;-8.514;2023-09-07T10:13:34;7.32;;;2.38;;
80679;SDS011;70043;51.982;-8.514;2023-09-07T10:16:05;9.23;;;2.55;;
80679;SDS011;70043;51.982;-8.514;2023-09-07T10:18:34;9.35;;;2.63;;
80679;SDS011;70043;51.982;-8.514;2023-09-07T10:21:02;6.93;;;2.30;;
80679;SDS011;70043;51.982;-8.514;2023-09-07T10:23:35;8.52;;;2.13;;
80679;SDS011;70043;51.982;-8.514;2023-09-07T10:26:09;10.40;;;2.08;;
80679;SDS011;70043;51.982;-8.514;2023-09-07T10:28:37;13.05;;;2.60;;
80679;SDS011;70043;51.982;-8.514;2023-09-07T10:31:12;7.07;;;2.25;;
80679;SDS011;70043;51.982;-8.514;2023-09-07T10:33:39;9.07;;;2.33;;
80679;SDS011;70043;51.982;-8.514;2023-09-07T10:36:07;11.52;;;2.63;;
80679;SDS011;70043;51.982;-8.514;2023-09-07T10:38:34;11.10;;;2.35;;
80679;SDS011;70043;51.982;-8.514;2023-09-07T10:41:01;11.93;;;2.38;;
80679;SDS011;70043;51.982;-8.514;2023-09-07T10:43:29;11.00;;;2.58;;
80679;SDS011;70043;51.982;-8.514;2023-09-07T10:45:57;8.43;;;1.55;;
80679;SDS011;70043;51.982;-8.514;2023-09-07T10:48:31;5.95;;;1.70;;
80679;SDS011;70043;51.982;-8.514;2023-09-07T10:51:03;12.25;;;2.85;;
80679;SDS011;70043;51.982;-8.514;2023-09-07T10:53:31;7.97;;;2.10;;
80679;SDS011;70043;51.982;-8.514;2023-09-07T10:56:02;5.80;;;2.58;;
80679;SDS011;70043;51.982;-8.514;2023-09-07T11:00:57;8.45;;;2.58;;
80679;SDS011;70043;51.982;-8.514;2023-09-07T11:03:28;8.57;;;2.13;;
80679;SDS011;70043;51.982;-8.514;2023-09-07T11:05:58;13.38;;;2.38;;
80679;SDS011;70043;51.982;-8.514;2023-09-07T11:08:25;7.07;;;1.67;;
80679;SDS011;70043;51.982;-8.514;2023-09-07T11:10:55;4.93;;;2.20;;
80679;SDS011;70043;51.982;-8.514;2023-09-07T11:13:26;8.43;;;2.20;;
80679;SDS011;70043;51.982;-8.514;2023-09-07T11:15:53;11.82;;;2.22;;
80679;SDS011;70043;51.982;-8.514;2023-09-07T11:18:23;3.75;;;1.73;;
80679;SDS011;70043;51.982;-8.514;2023-09-07T11:20:52;7.60;;;2.33;;
80679;SDS011;70043;51.982;-8.514;2023-09-07T11:23:21;7.75;;;1.95;;
80679;SDS011;70043;51.982;-8.514;2023-09-07T11:25:48;5.40;;;2.40;;
80679;SDS011;70043;51.982;-8.514;2023-09-07T11:28:17;6.60;;;1.77;;
80679;SDS011;70043;51.982;-8.514;2023-09-07T11:30:50;5.93;;;2.00;;
80679;SDS011;70043;51.982;-8.514;2023-09-07T11:33:18;5.00;;;2.17;;
80679;SDS011;70043;51.982;-8.514;2023-09-07T11:35:46;3.15;;;1.73;;
80679;SDS011;70043;51.982;-8.514;2023-09-07T11:38:18;6.70;;;2.15;;
80679;SDS011;70043;51.982;-8.514;2023-09-07T11:40:44;7.40;;;1.77;;
80679;SDS011;70043;51.982;-8.514;2023-09-07T11:43:12;3.83;;;1.77;;
80679;SDS011;70043;51.982;-8.514;2023-09-07T11:45:40;8.63;;;2.08;;
80679;SDS011;70043;51.982;-8.514;2023-09-07T11:48:07;6.32;;;1.98;;
80679;SDS011;70043;51.982;-8.514;2023-09-07T11:50:34;4.85;;;2.17;;
80679;SDS011;70043;51.982;-8.514;2023-09-07T11:53:05;4.35;;;1.75;;
80679;SDS011;70043;51.982;-8.514;2023-09-07T11:55:34;6.00;;;1.65;;
80679;SDS011;70043;51.982;-8.514;2023-09-07T11:58:01;8.40;;;2.28;;
80679;SDS011;70043;51.982;-8.514;2023-09-07T12:00:28;7.30;;;2.55;;
80679;SDS011;70043;51.982;-8.514;2023-09-07T12:02:56;5.50;;;2.10;;
80679;SDS011;70043;51.982;-8.514;2023-09-07T12:05:23;5.25;;;2.03;;
80679;SDS011;70043;51.982;-8.514;2023-09-07T12:07:50;7.47;;;2.00;;
80679;SDS011;70043;51.982;-8.514;2023-09-07T12:10:18;4.05;;;1.85;;
80679;SDS011;70043;51.982;-8.514;2023-09-07T12:12:46;6.35;;;1.50;;
80679;SDS011;70043;51.982;-8.514;2023-09-07T12:15:16;6.78;;;2.00;;
80679;SDS011;70043;51.982;-8.514;2023-09-07T12:17:45;10.07;;;1.95;;
80679;SDS011;70043;51.982;-8.514;2023-09-07T12:20:12;6.82;;;2.03;;
80679;SDS011;70043;51.982;-8.514;2023-09-07T12:22:39;3.72;;;1.55;;
80679;SDS011;70043;51.982;-8.514;2023-09-07T12:25:06;6.97;;;2.03;;
80679;SDS011;70043;51.982;-8.514;2023-09-07T12:27:36;5.90;;;1.60;;
80679;SDS011;70043;51.982;-8.514;2023-09-07T12:30:09;5.20;;;1.60;;
80679;SDS011;70043;51.982;-8.514;2023-09-07T12:32:38;3.92;;;1.90;;
80679;SDS011;70043;51.982;-8.514;2023-09-07T12:35:05;4.05;;;2.05;;
80679;SDS011;70043;51.982;-8.514;2023-09-07T12:37:33;4.72;;;1.60;;
80679;SDS011;70043;51.982;-8.514;2023-09-07T12:40:00;6.93;;;1.60;;
80679;SDS011;70043;51.982;-8.514;2023-09-07T12:42:30;5.82;;;2.20;;
80679;SDS011;70043;51.982;-8.514;2023-09-07T12:44:57;4.25;;;1.80;;
80679;SDS011;70043;51.982;-8.514;2023-09-07T12:47:26;3.45;;;2.00;;
80679;SDS011;70043;51.982;-8.514;2023-09-07T12:49:53;6.95;;;2.33;;
80679;SDS011;70043;51.982;-8.514;2023-09-07T12:52:20;4.70;;;1.77;;
80679;SDS011;70043;51.982;-8.514;2023-09-07T12:54:47;5.97;;;1.85;;
80679;SDS011;70043;51.982;-8.514;2023-09-07T12:57:14;6.97;;;1.98;;
80679;SDS011;70043;51.982;-8.514;2023-09-07T12:59:42;5.22;;;1.80;;
80679;SDS011;70043;51.982;-8.514;2023-09-07T13:02:12;11.02;;;2.08;;
80679;SDS011;70043;51.982;-8.514;2023-09-07T13:04:41;5.70;;;2.20;;
80679;SDS011;70043;51.982;-8.514;2023-09-07T13:07:10;5.85;;;2.50;;
80679;SDS011;70043;51.982;-8.514;2023-09-07T13:09:37;7.22;;;2.63;;
80679;SDS011;70043;51.982;-8.514;2023-09-07T13:12:04;7.80;;;2.03;;
80679;SDS011;70043;51.982;-8.514;2023-09-07T13:14:31;6.88;;;2.47;;
80679;SDS011;70043;51.982;-8.514;2023-09-07T13:16:58;9.77;;;2.42;;
80679;SDS011;70043;51.982;-8.514;2023-09-07T13:19:25;14.40;;;2.17;;
80679;SDS011;70043;51.982;-8.514;2023-09-07T13:21:54;5.43;;;2.65;;
80679;SDS011;70043;51.982;-8.514;2023-09-07T13:24:21;10.30;;;2.28;;
80679;SDS011;70043;51.982;-8.514;2023-09-07T13:26:48;3.95;;;1.85;;
80679;SDS011;70043;51.982;-8.514;2023-09-07T13:29:18;4.63;;;2.22;;
80679;SDS011;70043;51.982;-8.514;2023-09-07T13:31:45;8.25;;;2.97;;
80679;SDS011;70043;51.982;-8.514;2023-09-07T13:34:12;6.90;;;2.00;;
80679;SDS011;70043;51.982;-8.514;2023-09-07T13:36:42;5.85;;;2.20;;
80679;SDS011;70043;51.982;-8.514;2023-09-07T13:39:10;6.25;;;2.38;;
80679;SDS011;70043;51.982;-8.514;2023-09-07T13:41:37;3.75;;;2.08;;
80679;SDS011;70043;51.982;-8.514;2023-09-07T13:44:04;3.33;;;1.80;;
80679;SDS011;70043;51.982;-8.514;2023-09-07T13:46:31;6.38;;;2.53;;
80679;SDS011;70043;51.982;-8.514;2023-09-07T13:48:58;7.43;;;2.28;;
80679;SDS011;70043;51.982;-8.514;2023-09-07T13:51:25;13.00;;;2.50;;
80679;SDS011;70043;51.982;-8.514;2023-09-07T13:53:52;8.00;;;2.28;;
80679;SDS011;70043;51.982;-8.514;2023-09-07T13:56:24;7.35;;;2.40;;
80679;SDS011;70043;51.982;-8.514;2023-09-07T13:58:50;8.52;;;2.35;;
80679;SDS011;70043;51.982;-8.514;2023-09-07T14:01:17;3.35;;;2.22;;
80679;SDS011;70043;51.982;-8.514;2023-09-07T14:03:44;4.70;;;2.80;;
80679;SDS011;70043;51.982;-8.514;2023-09-07T14:06:10;9.18;;;3.10;;
80679;SDS011;70043;51.982;-8.514;2023-09-07T14:08:37;8.60;;;2.70;;
80679;SDS011;70043;51.982;-8.514;2023-09-07T14:11:04;9.98;;;2.10;;
80679;SDS011;70043;51.982;-8.514;2023-09-07T14:13:33;8.27;;;2.30;;
80679;SDS011;70043;51.982;-8.514;2023-09-07T14:16:00;6.68;;;2.20;;
80679;SDS011;70043;51.982;-8.514;2023-09-07T14:18:27;6.20;;;2.35;;
80679;SDS011;70043;51.982;-8.514;2023-09-07T14:20:54;5.65;;;2.20;;
80679;SDS011;70043;51.982;-8.514;2023-09-07T14:23:23;7.53;;;1.98;;
80679;SDS011;70043;51.982;-8.514;2023-09-07T14:25:53;5.35;;;2.20;;
80679;SDS011;70043;51.982;-8.514;2023-09-07T14:28:20;7.80;;;2.20;;
80679;SDS011;70043;51.982;-8.514;2023-09-07T14:30:48;7.88;;;2.53;;
80679;SDS011;70043;51.982;-8.514;2023-09-07T14:33:16;9.05;;;2.55;;
80679;SDS011;70043;51.982;-8.514;2023-09-07T14:35:43;10.45;;;2.72;;
80679;SDS011;70043;51.982;-8.514;2023-09-07T14:38:10;11.27;;;2.55;;
80679;SDS011;70043;51.982;-8.514;2023-09-07T14:40:37;12.00;;;2.85;;
80679;SDS011;70043;51.982;-8.514;2023-09-07T14:43:04;6.80;;;2.38;;